Time;durP1;ratioP1;P1;durP2;ratioP2;P2;SDS_P1;SDS_P2;PMS_P1;PMS_P2;Temp;Humidity;BMP_temperature;BMP_pressure;BME280_temperature;BME280_humidity;BME280_pressure;Samples;Min_cycle;Max_cycle;Signal;HPM_P1;HPM_P2
2023/05/07 00:00:03;;;;;;;11.73;8.23;;;;;;;-141.97;70.16;47630.56;5051691;28;20227;-80
2023/05/07 00:02:29;;;;;;;13.40;8.43;;;;;;;-141.97;70.25;47607.50;5051736;28;20173;-80
2023/05/07 00:04:55;;;;;;;13.03;8.60;;;;;;;-141.97;70.04;47638.25;5051362;28;20272;-80
2023/05/07 00:07:20;;;;;;;11.57;8.33;;;;;;;-141.97;70.17;47651.69;5051955;28;20240;-80
2023/05/07 00:09:46;;;;;;;13.33;8.80;;;;;;;-141.97;69.78;47742.03;5052032;28;20153;-79
2023/05/07 00:12:11;;;;;;;14.00;8.40;;;;;;;-141.97;69.47;47645.94;5051468;28;20169;-78
2023/05/07 00:14:36;;;;;;;12.77;8.57;;;;;;;-141.97;69.50;47630.56;5051440;28;20232;-78
2023/05/07 00:17:02;;;;;;;10.33;8.30;;;;;;;-141.97;70.44;47617.09;5051698;28;20165;-79
2023/05/07 00:19:27;;;;;;;11.37;8.23;;;;;;;-141.97;69.61;47642.09;5051166;28;20161;-76
2023/05/07 00:21:56;;;;;;;12.03;8.67;;;;;;;-141.97;68.71;47638.25;5051577;28;20240;-79
2023/05/07 00:24:22;;;;;;;11.70;8.53;;;;;;;-141.97;69.05;47503.69;5051799;28;20160;-79
2023/05/07 00:26:47;;;;;;;12.47;8.50;;;;;;;-141.97;69.29;47642.09;5047105;28;20554;-78
2023/05/07 00:29:13;;;;;;;12.90;8.70;;;;;;;-141.97;69.20;47615.19;5031652;28;20158;-78
2023/05/07 00:31:38;;;;;;;14.73;8.93;;;;;;;-141.97;69.53;47632.47;5031289;28;20170;-79
2023/05/07 00:34:03;;;;;;;10.93;8.23;;;;;;;-141.97;69.28;47651.69;5031302;28;20194;-79
2023/05/07 00:36:29;;;;;;;11.07;8.03;;;;;;;-141.97;68.84;47695.91;5031827;28;20159;-79
2023/05/07 00:38:56;;;;;;;11.67;8.07;;;;;;;-141.97;68.98;47620.94;5030011;28;20607;-79
2023/05/07 00:41:22;;;;;;;11.43;7.67;;;;;;;-141.97;69.09;47609.41;5013533;28;20264;-79
2023/05/07 00:43:47;;;;;;;10.93;8.07;;;;;;;-141.97;68.85;47665.16;5031508;28;20253;-79
2023/05/07 00:46:15;;;;;;;11.23;7.80;;;;;;;-141.97;68.95;47592.13;5031372;28;20162;-78
2023/05/07 00:48:41;;;;;;;11.93;8.40;;;;;;;-141.97;69.87;47653.63;5030907;28;20166;-79
2023/05/07 00:51:07;;;;;;;12.23;8.87;;;;;;;-141.97;70.29;47699.75;5031451;28;20281;-79
2023/05/07 00:53:32;;;;;;;12.37;8.87;;;;;;;-141.97;71.10;47649.78;5030961;28;20226;-79
2023/05/07 00:55:57;;;;;;;13.63;9.20;;;;;;;-141.97;71.71;47634.41;5030948;28;20166;-79
2023/05/07 00:58:23;;;;;;;12.60;9.67;;;;;;;-141.97;72.46;47613.25;5013692;28;20162;-79
2023/05/07 01:00:49;;;;;;;14.50;9.70;;;;;;;-141.97;73.33;47642.09;5031302;28;20189;-79
2023/05/07 01:03:15;;;;;;;16.00;9.57;;;;;;;-141.97;73.69;47624.78;5031276;28;20193;-79
2023/05/07 01:05:42;;;;;;;13.37;9.60;;;;;;;-141.97;74.12;47653.63;5031302;28;20261;-79
2023/05/07 01:08:08;;;;;;;12.93;9.60;;;;;;;-141.97;74.83;47711.28;5031155;28;20174;-79
2023/05/07 01:10:34;;;;;;;11.57;9.07;;;;;;;-141.97;74.89;47624.78;5031127;28;20162;-78
2023/05/07 01:13:00;;;;;;;22.60;10.37;;;;;;;-141.97;75.21;47595.97;5030869;28;20194;-78
2023/05/07 01:15:25;;;;;;;11.87;9.03;;;;;;;-141.97;75.42;47674.78;5013336;28;20245;-78
2023/05/07 01:17:51;;;;;;;16.80;10.30;;;;;;;-141.97;75.50;47599.81;5031279;28;20174;-78
2023/05/07 01:20:17;;;;;;;12.80;9.10;;;;;;;-141.97;75.61;47676.69;5031176;28;20158;-79
2023/05/07 01:22:43;;;;;;;16.33;9.37;;;;;;;-141.97;75.60;47640.16;5031168;28;20192;-79
2023/05/07 01:25:08;;;;;;;13.03;9.33;;;;;;;-141.97;75.96;47601.72;5031068;28;20205;-79
2023/05/07 01:27:36;;;;;;;12.70;9.30;;;;;;;-141.97;75.51;47611.34;5030893;28;20154;-79
2023/05/07 01:30:01;;;;;;;13.27;9.83;;;;;;;-141.97;74.91;47711.28;5031358;28;20634;-79
2023/05/07 01:32:47;;;;;;;12.37;9.07;;;;;;;-141.97;74.66;47657.47;5030807;28;20232;-79
2023/05/07 01:35:20;;;;;;;14.27;9.80;;;;;;;-141.97;74.04;47669.00;5031010;28;20158;-79
2023/05/07 01:37:47;;;;;;;17.60;10.30;;;;;;;-141.97;74.57;47644.00;5034332;28;20158;-79
2023/05/07 01:40:13;;;;;;;19.70;10.13;;;;;;;-141.97;74.55;47613.25;5034575;28;20591;-79
2023/05/07 01:42:39;;;;;;;14.53;9.97;;;;;;;-141.97;74.61;47674.78;5034681;28;20158;-79
2023/05/07 01:45:05;;;;;;;12.27;9.90;;;;;;;-141.97;74.35;47645.94;5036756;28;20208;-79
2023/05/07 01:47:31;;;;;;;16.50;10.23;;;;;;;-141.97;74.70;47599.81;5053810;28;20637;-79
2023/05/07 01:49:57;;;;;;;15.67;11.00;;;;;;;-141.97;73.52;47640.16;5054248;28;20169;-79
2023/05/07 01:52:24;;;;;;;16.93;11.33;;;;;;;-141.97;72.97;47651.69;5036572;28;20219;-78
2023/05/07 01:54:49;;;;;;;16.43;11.60;;;;;;;-141.97;72.84;47795.88;5054118;28;20145;-78
2023/05/07 01:57:15;;;;;;;17.87;11.77;;;;;;;-141.97;73.27;47630.56;5053853;28;20158;-79
2023/05/07 01:59:40;;;;;;;17.57;11.87;;;;;;;-141.97;73.37;47672.84;5053752;28;20168;-79
2023/05/07 02:02:06;;;;;;;24.43;13.23;;;;;;;-141.97;73.13;47624.78;5054084;28;20567;-79
2023/05/07 02:04:31;;;;;;;26.60;17.83;;;;;;;-141.97;74.12;47672.84;5055910;28;20189;-78
2023/05/07 02:06:56;;;;;;;21.67;13.87;;;;;;;-141.97;74.92;47651.69;5059011;28;20272;-77
2023/05/07 02:09:22;;;;;;;19.60;13.33;;;;;;;-141.97;75.07;47599.81;5055550;28;20207;-79
2023/05/07 02:11:48;;;;;;;17.57;12.47;;;;;;;-141.97;75.99;47626.72;5055565;28;20165;-79
2023/05/07 02:14:13;;;;;;;18.57;12.87;;;;;;;-141.97;77.67;47795.88;5053902;28;20290;-79
2023/05/07 02:16:39;;;;;;;23.27;14.60;;;;;;;-141.97;78.35;47622.88;5054117;28;20174;-79
2023/05/07 02:19:05;;;;;;;21.87;13.80;;;;;;;-141.97;78.33;47634.41;5053773;28;20168;-78
2023/05/07 02:21:30;;;;;;;21.60;15.10;;;;;;;-141.97;77.70;47665.16;5054182;28;20166;-77
2023/05/07 02:23:55;;;;;;;59.00;40.73;;;;;;;-141.97;76.83;47649.78;5053425;28;20168;-79
2023/05/07 02:26:21;;;;;;;52.83;37.43;;;;;;;-141.97;76.56;47607.50;5053695;28;20648;-79
2023/05/07 02:28:47;;;;;;;43.87;32.60;;;;;;;-141.97;77.59;47640.16;5054040;28;20736;-80
2023/05/07 02:31:12;;;;;;;30.17;20.33;;;;;;;-141.97;77.84;47619.03;5053091;28;20546;-79
2023/05/07 02:33:37;;;;;;;31.70;20.03;;;;;;;-141.97;78.49;47680.53;5053611;28;20280;-78
2023/05/07 02:36:10;;;;;;;32.57;22.00;;;;;;;-141.97;78.63;47667.06;5053262;28;20284;-79
2023/05/07 02:38:36;;;;;;;64.97;41.97;;;;;;;-141.97;78.49;47661.31;5053047;28;20165;-80
2023/05/07 02:41:01;;;;;;;52.77;33.20;;;;;;;-141.97;78.33;47657.47;5053101;28;20188;-79
2023/05/07 02:43:27;;;;;;;35.73;24.97;;;;;;;-141.97;79.23;47695.91;5052985;28;20242;-79
2023/05/07 02:46:06;;;;;;;32.03;21.63;;;;;;;-141.97;78.74;47655.53;5053049;28;20554;-80
2023/05/07 02:48:32;;;;;;;31.33;20.90;;;;;;;-141.97;78.29;47655.53;5051609;28;20165;-79
2023/05/07 02:50:58;;;;;;;26.27;18.27;;;;;;;-141.97;78.33;47647.84;5053166;28;20682;-79
2023/05/07 02:53:27;;;;;;;26.10;17.03;;;;;;;-141.97;78.90;47680.53;5053110;28;20212;-79
2023/05/07 02:55:53;;;;;;;26.70;16.83;;;;;;;-141.97;79.61;47653.63;5053282;28;20162;-79
2023/05/07 02:58:18;;;;;;;27.93;18.20;;;;;;;-141.97;80.19;47634.41;5052587;28;20553;-77
2023/05/07 03:00:44;;;;;;;25.63;17.47;;;;;;;-141.97;79.94;47722.81;5052779;28;20563;-79
2023/05/07 03:03:10;;;;;;;25.87;16.57;;;;;;;-141.97;79.78;47669.00;5052704;28;20260;-79
2023/05/07 03:05:36;;;;;;;25.13;16.47;;;;;;;-141.97;79.38;47634.41;5052765;28;20157;-78
2023/05/07 03:08:01;;;;;;;29.97;16.87;;;;;;;-141.97;79.73;47678.63;5052802;28;20243;-80
2023/05/07 03:10:26;;;;;;;24.80;16.47;;;;;;;-141.97;80.93;47653.63;5052802;28;20586;-80
2023/05/07 03:12:52;;;;;;;23.30;16.07;;;;;;;-141.97;81.04;47651.69;5053007;28;20224;-79
2023/05/07 03:15:17;;;;;;;27.90;16.63;;;;;;;-141.97;81.41;47603.66;5052189;28;20217;-79
2023/05/07 03:17:43;;;;;;;24.10;16.53;;;;;;;-141.97;80.99;47657.47;5052166;28;20200;-79
2023/05/07 03:20:09;;;;;;;25.17;15.83;;;;;;;-141.97;81.60;47611.34;5052358;28;20212;-79
2023/05/07 03:22:35;;;;;;;23.83;16.03;;;;;;;-141.97;82.43;47659.38;5034732;28;20174;-78
2023/05/07 03:25:00;;;;;;;26.87;17.73;;;;;;;-141.97;84.18;47626.72;5052173;28;20542;-76
2023/05/07 03:27:26;;;;;;;25.63;16.33;;;;;;;-141.97;84.84;47657.47;5034229;28;20177;-79
2023/05/07 03:29:51;;;;;;;24.43;16.50;;;;;;;-141.97;84.98;47634.41;5052859;28;20200;-79
2023/05/07 03:32:16;;;;;;;25.70;16.77;;;;;;;-141.97;85.46;47599.81;5051814;28;20165;-80
2023/05/07 03:34:42;;;;;;;24.10;16.17;;;;;;;-141.97;85.14;47680.53;5034069;28;20204;-79
2023/05/07 03:37:07;;;;;;;36.10;22.43;;;;;;;-141.97;84.44;47590.19;5052242;28;20172;-79
2023/05/07 03:39:32;;;;;;;38.13;26.07;;;;;;;-141.97;83.48;47655.53;5052416;28;20618;-79
2023/05/07 03:41:58;;;;;;;28.13;18.17;;;;;;;-141.97;83.22;47680.53;5052386;28;20630;-80
2023/05/07 03:44:23;;;;;;;24.53;15.83;;;;;;;-141.97;83.18;47653.63;5051980;28;20157;-78
2023/05/07 03:46:49;;;;;;;25.07;14.90;;;;;;;-141.97;83.64;47665.16;5051985;28;20169;-79
2023/05/07 03:49:15;;;;;;;26.83;14.73;;;;;;;-141.97;85.35;47676.69;5052145;28;20207;-79
2023/05/07 03:51:41;;;;;;;23.53;14.90;;;;;;;-141.97;86.29;47672.84;5051796;28;20174;-76
2023/05/07 03:54:06;;;;;;;26.87;15.40;;;;;;;-141.97;86.98;47619.03;5052079;28;20263;-79
2023/05/07 03:56:32;;;;;;;22.23;15.07;;;;;;;-141.97;87.70;47667.06;5051739;28;20162;-79
2023/05/07 03:58:57;;;;;;;25.73;16.00;;;;;;;-141.97;88.42;47680.53;5033732;28;20549;-79
2023/05/07 04:01:22;;;;;;;23.83;15.83;;;;;;;-141.97;90.04;47669.00;5062755;28;20161;-79
2023/05/07 04:03:48;;;;;;;24.93;16.37;;;;;;;-141.97;90.36;47682.47;5064719;28;20169;-79
2023/05/07 04:06:15;;;;;;;25.47;17.30;;;;;;;-141.97;91.20;47632.47;5061750;28;20166;-81
2023/05/07 04:08:41;;;;;;;26.80;17.37;;;;;;;-141.97;91.00;47661.31;5055297;28;20244;-79
2023/05/07 04:11:06;;;;;;;27.77;17.13;;;;;;;-141.97;90.90;47730.50;5035034;28;20642;-78
2023/05/07 04:13:32;;;;;;;25.10;16.90;;;;;;;-141.97;90.85;47680.53;5052320;28;20274;-79
2023/05/07 04:15:57;;;;;;;27.17;15.97;;;;;;;-141.97;89.36;47695.91;5051926;28;20221;-78
2023/05/07 04:18:22;;;;;;;25.73;16.90;;;;;;;-141.97;89.05;47674.78;5051908;28;20183;-76
2023/05/07 04:20:51;;;;;;;25.07;15.63;;;;;;;-141.97;88.47;47649.78;5051473;28;20205;-79
2023/05/07 04:23:17;;;;;;;27.80;17.07;;;;;;;-141.97;88.22;47651.69;5051389;28;20622;-78
2023/05/07 04:25:42;;;;;;;28.10;17.67;;;;;;;-141.97;88.16;47672.84;5051489;28;20165;-78
2023/05/07 04:28:08;;;;;;;27.50;17.23;;;;;;;-141.97;87.93;47728.59;5051611;28;20184;-79
2023/05/07 04:30:33;;;;;;;29.73;17.87;;;;;;;-141.97;87.15;47745.88;5052736;28;20172;-77
2023/05/07 04:32:58;;;;;;;27.90;17.50;;;;;;;-141.97;87.56;47630.56;5051399;28;20238;-78
2023/05/07 04:35:24;;;;;;;29.43;18.60;;;;;;;-141.97;88.11;47678.63;5051462;28;20158;-79
2023/05/07 04:37:49;;;;;;;29.10;19.03;;;;;;;-141.97;88.02;47649.78;5051399;28;20180;-79
2023/05/07 04:40:15;;;;;;;31.27;18.17;;;;;;;-141.97;87.39;47663.22;5051640;28;20288;-79
2023/05/07 04:42:41;;;;;;;27.00;17.97;;;;;;;-141.97;86.98;47644.00;5051265;28;20587;-80
2023/05/07 04:45:06;;;;;;;27.00;16.27;;;;;;;-141.97;85.94;47659.38;5051576;28;20176;-78
2023/05/07 04:47:32;;;;;;;24.30;16.43;;;;;;;-141.97;85.58;47672.84;5051014;28;20170;-79
2023/05/07 04:49:58;;;;;;;26.57;16.43;;;;;;;-141.97;84.87;47661.31;5051863;28;20626;-78
2023/05/07 04:52:23;;;;;;;27.80;17.50;;;;;;;-141.97;84.36;47682.47;5051078;28;20680;-78
2023/05/07 04:54:49;;;;;;;25.83;16.87;;;;;;;-141.97;84.72;47672.84;5033744;28;20208;-80
2023/05/07 04:57:14;;;;;;;24.17;16.50;;;;;;;-141.97;84.60;47695.91;5033436;28;20557;-80
2023/05/07 04:59:39;;;;;;;25.00;16.93;;;;;;;-141.97;84.26;47749.72;5051111;28;20558;-80
2023/05/07 05:02:05;;;;;;;24.80;15.90;;;;;;;-141.97;83.63;47647.84;5051271;28;20191;-81
2023/05/07 05:04:30;;;;;;;22.97;16.10;;;;;;;-141.97;83.64;47669.00;5051494;28;20158;-80
2023/05/07 05:06:56;;;;;;;25.73;15.73;;;;;;;-141.97;82.30;47686.31;5051397;28;20240;-80
2023/05/07 05:09:21;;;;;;;23.53;16.10;;;;;;;-141.97;82.10;47655.53;5051788;28;20177;-80
2023/05/07 05:11:47;;;;;;;23.47;15.83;;;;;;;-141.97;81.76;47624.78;5054206;28;20170;-78
2023/05/07 05:14:12;;;;;;;24.10;15.70;;;;;;;-141.97;80.70;47680.53;5054801;28;20233;-79
2023/05/07 05:16:37;;;;;;;22.30;15.43;;;;;;;-141.97;80.27;47634.41;5059006;28;20169;-79
2023/05/07 05:19:03;;;;;;;23.90;15.13;;;;;;;-141.97;78.83;47632.47;5062973;28;20176;-80
2023/05/07 05:21:28;;;;;;;25.03;15.73;;;;;;;-141.97;78.87;47678.63;5055810;28;20580;-80
2023/05/07 05:23:54;;;;;;;21.87;15.17;;;;;;;-141.97;78.10;47676.69;5055435;28;20166;-81
2023/05/07 05:26:21;;;;;;;23.93;15.97;;;;;;;-141.97;76.65;47653.63;5055710;28;20573;-80
2023/05/07 05:28:46;;;;;;;18.67;14.70;;;;;;;-141.97;77.53;47765.09;5055304;28;20181;-78
2023/05/07 05:31:12;;;;;;;22.57;15.50;;;;;;;-141.97;77.69;47757.41;5054941;28;20166;-80
2023/05/07 05:33:37;;;;;;;25.10;15.90;;;;;;;-141.97;76.89;47609.41;5054656;28;20181;-79
2023/05/07 05:36:03;;;;;;;22.77;14.67;;;;;;;-141.97;75.61;47699.75;5037582;28;20260;-79
2023/05/07 05:38:29;;;;;;;19.00;14.13;;;;;;;-141.97;74.55;47630.56;5054860;28;20165;-78
2023/05/07 05:40:54;;;;;;;21.03;13.90;;;;;;;-141.97;74.00;47628.63;5054601;28;20527;-80
2023/05/07 05:43:20;;;;;;;20.40;14.10;;;;;;;-141.97;73.39;47611.34;5054540;28;20515;-80
2023/05/07 05:45:45;;;;;;;19.30;13.70;;;;;;;-141.97;72.70;47657.47;5055375;28;20161;-79
2023/05/07 05:48:11;;;;;;;19.93;13.50;;;;;;;-141.97;70.88;47661.31;5054375;28;20554;-80
2023/05/07 05:50:36;;;;;;;20.97;13.37;;;;;;;-141.97;70.21;47667.06;5054931;28;20162;-80
2023/05/07 05:53:02;;;;;;;17.07;12.50;;;;;;;-141.97;69.47;47647.84;5055054;28;20197;-82
2023/05/07 05:55:27;;;;;;;20.10;13.40;;;;;;;-141.97;68.04;47678.63;5055158;28;20239;-81
2023/05/07 05:57:53;;;;;;;25.43;14.77;;;;;;;-141.97;66.48;47657.47;5053846;28;20689;-81
2023/05/07 06:00:18;;;;;;;19.90;13.03;;;;;;;-141.97;65.47;47626.72;5035102;28;20253;-81
2023/05/07 06:02:44;;;;;;;14.90;11.07;;;;;;;-141.97;63.45;47661.31;5034473;28;20538;-78
2023/05/07 06:05:09;;;;;;;16.90;11.90;;;;;;;-141.97;63.56;47653.63;5033778;28;20166;-82
2023/05/07 06:07:35;;;;;;;17.60;11.30;;;;;;;-141.97;63.41;47611.34;5034462;28;20186;-82
2023/05/07 06:10:03;;;;;;;18.97;11.30;;;;;;;-141.97;62.58;47644.00;5034988;28;20612;-82
2023/05/07 06:12:29;;;;;;;16.10;11.13;;;;;;;-141.97;62.82;47642.09;5034874;28;20551;-80
2023/05/07 06:14:54;;;;;;;14.90;11.23;;;;;;;-141.97;61.71;47626.72;5033068;28;20214;-81
2023/05/07 06:17:20;;;;;;;16.70;11.50;;;;;;;-141.97;61.35;47565.22;5033393;28;20534;-80
2023/05/07 06:19:45;;;;;;;18.97;11.27;;;;;;;-141.97;60.86;47615.19;5049012;28;20714;-82
2023/05/07 06:22:10;;;;;;;14.63;10.97;;;;;;;-141.97;60.12;47636.31;5053124;28;20165;-81
2023/05/07 06:24:36;;;;;;;15.57;10.77;;;;;;;-141.97;59.79;47640.16;5053679;28;20217;-80
2023/05/07 06:27:01;;;;;;;16.57;10.83;;;;;;;-141.97;59.39;47619.03;5053768;28;20268;-81
2023/05/07 06:29:27;;;;;;;14.27;10.50;;;;;;;-141.97;59.46;47622.88;5054455;28;20158;-80
2023/05/07 06:31:55;;;;;;;15.83;10.93;;;;;;;-141.97;59.22;47615.19;5053098;28;20177;-83
2023/05/07 06:34:20;;;;;;;14.40;10.50;;;;;;;-141.97;58.76;47747.81;5035706;28;20189;-82
2023/05/07 06:36:46;;;;;;;12.87;9.97;;;;;;;-141.97;58.29;47626.72;5036099;28;20184;-82
2023/05/07 06:39:11;;;;;;;13.40;10.23;;;;;;;-141.97;58.15;47613.25;5053474;28;20243;-82
2023/05/07 06:41:37;;;;;;;17.57;10.90;;;;;;;-141.97;57.35;47615.19;5053682;28;20157;-85
2023/05/07 06:44:03;;;;;;;14.17;10.33;;;;;;;-141.97;57.76;47534.44;5054094;28;20158;-81
2023/05/07 06:46:28;;;;;;;15.23;10.53;;;;;;;-141.97;57.76;47670.91;5036063;28;20173;-81
2023/05/07 06:48:54;;;;;;;16.13;10.60;;;;;;;-141.97;58.23;47736.28;5053632;28;20196;-80
2023/05/07 06:51:19;;;;;;;16.10;10.37;;;;;;;-141.97;57.89;47561.38;5054475;28;20180;-82
2023/05/07 06:53:45;;;;;;;13.40;10.57;;;;;;;-141.97;57.41;47626.72;5053807;28;20243;-81
2023/05/07 06:56:10;;;;;;;15.37;11.30;;;;;;;-141.97;59.51;47607.50;5053617;28;20181;-82
2023/05/07 06:58:37;;;;;;;15.70;11.10;;;;;;;-141.97;58.53;47622.88;5053217;28;20166;-82
2023/05/07 07:01:03;;;;;;;15.70;10.70;;;;;;;-141.97;57.75;47684.38;5052892;28;20169;-83
2023/05/07 07:03:28;;;;;;;18.67;10.77;;;;;;;-141.97;56.86;47595.97;5035576;28;20184;-82
2023/05/07 07:05:54;;;;;;;16.03;11.07;;;;;;;-141.97;55.98;47611.34;5036581;28;20231;-81
2023/05/07 07:08:21;;;;;;;16.00;11.60;;;;;;;-141.97;56.79;47603.66;5053134;28;20253;-81
2023/05/07 07:10:47;;;;;;;14.70;11.30;;;;;;;-141.97;56.00;47786.25;5053142;28;20157;-83
2023/05/07 07:13:13;;;;;;;14.77;11.17;;;;;;;-141.97;55.96;47546.00;5053487;28;20221;-81
2023/05/07 07:15:38;;;;;;;14.23;10.33;;;;;;;-141.97;54.87;47734.34;5053457;28;20229;-81
2023/05/07 07:18:04;;;;;;;12.90;10.43;;;;;;;-141.97;54.07;47605.56;5051920;28;20173;-79
2023/05/07 07:20:30;;;;;;;15.17;11.10;;;;;;;-141.97;54.45;47576.75;5034421;28;20629;-80
2023/05/07 07:22:55;;;;;;;15.43;11.10;;;;;;;-141.97;54.03;47761.25;5052548;28;20157;-80
2023/05/07 07:25:21;;;;;;;16.23;11.90;;;;;;;-141.97;54.61;47680.53;5034792;28;20169;-79
2023/05/07 07:27:46;;;;;;;15.87;11.20;;;;;;;-141.97;53.82;47607.50;5034185;28;20191;-79
2023/05/07 07:30:11;;;;;;;15.93;11.33;;;;;;;-141.97;52.99;47507.53;5034112;28;20652;-80
2023/05/07 07:32:37;;;;;;;13.17;10.57;;;;;;;-141.97;53.18;47371.09;5052214;28;20165;-80
2023/05/07 07:35:03;;;;;;;15.93;10.87;;;;;;;-141.97;54.17;47578.66;5051881;28;20172;-80
2023/05/07 07:37:28;;;;;;;17.20;11.73;;;;;;;-141.97;54.18;47697.84;5052212;28;20241;-79
2023/05/07 07:39:55;;;;;;;15.20;11.73;;;;;;;-141.97;53.99;47480.63;5052346;28;20248;-80
2023/05/07 07:42:20;;;;;;;15.07;10.50;;;;;;;-141.97;53.40;47567.13;5052077;28;20158;-79
2023/05/07 07:44:45;;;;;;;15.83;10.83;;;;;;;-141.97;53.21;47432.59;5014056;28;20351;-82
2023/05/07 07:47:11;;;;;;;14.50;11.43;;;;;;;-141.97;52.88;47565.22;5048170;28;20181;-81
2023/05/07 07:49:36;;;;;;;15.63;11.20;;;;;;;-141.97;52.96;47582.50;5051087;28;20177;-82
2023/05/07 07:52:01;;;;;;;13.53;10.90;;;;;;;-141.97;53.38;47595.97;5049780;28;20268;-81
2023/05/07 07:54:27;;;;;;;15.63;10.97;;;;;;;-141.97;53.07;47632.47;5052284;28;20195;-81
2023/05/07 07:56:52;;;;;;;13.83;10.77;;;;;;;-141.97;52.00;47594.03;5052871;28;20204;-81
2023/05/07 07:59:18;;;;;;;12.87;10.23;;;;;;;-141.97;51.42;47613.25;5052705;28;20165;-82
2023/05/07 08:01:44;;;;;;;13.97;9.83;;;;;;;-141.97;51.01;47542.16;5051671;28;20153;-82
2023/05/07 08:04:10;;;;;;;13.50;9.87;;;;;;;-141.97;50.12;47553.69;5039361;28;20162;-81
2023/05/07 08:06:36;;;;;;;12.27;9.80;;;;;;;-141.97;49.62;47549.84;5031362;28;20177;-81
2023/05/07 08:09:02;;;;;;;15.93;9.43;;;;;;;-141.97;49.72;47601.72;5031526;28;20213;-81
2023/05/07 08:11:28;;;;;;;14.67;10.30;;;;;;;-141.97;48.84;47790.09;5014249;28;20177;-82
2023/05/07 08:13:54;;;;;;;14.53;9.73;;;;;;;-141.97;49.28;47553.69;5031298;28;20943;-80
2023/05/07 08:16:20;;;;;;;12.80;9.20;;;;;;;-141.97;49.17;47588.28;5031045;28;20189;-80
2023/05/07 08:18:45;;;;;;;11.60;8.70;;;;;;;-141.97;48.70;47549.84;5031126;28;20162;-81
2023/05/07 08:21:11;;;;;;;12.73;9.80;;;;;;;-141.97;48.13;47684.38;5031136;28;20191;-81
2023/05/07 08:23:36;;;;;;;13.20;9.23;;;;;;;-141.97;48.14;47570.97;5031487;28;20215;-81
2023/05/07 08:26:02;;;;;;;13.87;9.43;;;;;;;-141.97;48.72;47569.06;5012820;28;20593;-82
2023/05/07 08:28:27;;;;;;;13.87;9.93;;;;;;;-141.97;48.18;47497.94;5031505;28;20616;-81
2023/05/07 08:30:52;;;;;;;14.13;9.07;;;;;;;-141.97;47.55;47555.59;5031490;28;20174;-80
2023/05/07 08:33:18;;;;;;;11.73;8.60;;;;;;;-141.97;47.92;47515.22;5031910;28;20208;-81
2023/05/07 08:35:43;;;;;;;11.33;8.50;;;;;;;-141.97;48.14;47499.84;5033677;28;20543;-81
2023/05/07 08:38:09;;;;;;;13.40;9.13;;;;;;;-141.97;48.91;47471.03;5034535;28;20205;-83
2023/05/07 08:40:38;;;;;;;9.07;7.60;;;;;;;-141.97;48.64;47559.44;5032158;28;20204;-81
2023/05/07 08:43:06;;;;;;;13.47;8.47;;;;;;;-141.97;48.44;47469.09;5034147;28;20168;-81
2023/05/07 08:45:33;;;;;;;10.03;7.80;;;;;;;-141.97;48.44;47517.16;5034580;28;20193;-81
2023/05/07 08:48:01;;;;;;;10.97;7.53;;;;;;;-141.97;46.94;47570.97;5008198;28;20624;-81
2023/05/07 08:50:27;;;;;;;9.47;7.10;;;;;;;-141.97;46.40;47511.38;5036267;28;20161;-81
2023/05/07 08:52:52;;;;;;;10.03;6.90;;;;;;;-141.97;46.03;47540.22;5035528;28;20181;-80
2023/05/07 08:55:18;;;;;;;7.30;6.50;;;;;;;-141.97;46.10;47547.91;5018715;28;20223;-82
2023/05/07 08:57:43;;;;;;;9.00;6.50;;;;;;;-141.97;45.91;47580.59;5036233;28;20170;-82
2023/05/07 09:00:09;;;;;;;9.57;6.63;;;;;;;-141.97;44.38;47576.75;5035444;28;20163;-81
2023/05/07 09:02:36;;;;;;;10.83;7.10;;;;;;;-141.97;43.84;47534.44;5035475;28;20174;-80
2023/05/07 09:05:01;;;;;;;8.43;6.30;;;;;;;-141.97;43.73;47546.00;5036009;28;20197;-80
2023/05/07 09:07:27;;;;;;;8.67;5.83;;;;;;;-141.97;43.11;47501.78;5035443;28;20181;-79
2023/05/07 09:09:54;;;;;;;7.70;5.80;;;;;;;-141.97;42.28;47790.09;5035399;28;20241;-80
2023/05/07 09:12:21;;;;;;;11.70;6.70;;;;;;;-141.97;43.35;47484.47;5035300;28;20540;-81
2023/05/07 09:14:46;;;;;;;8.07;6.10;;;;;;;-141.97;43.41;47442.19;5016521;28;20229;-80
2023/05/07 09:17:12;;;;;;;8.80;5.80;;;;;;;-141.97;42.03;47497.94;5034382;28;20705;-81
2023/05/07 09:19:38;;;;;;;6.77;5.13;;;;;;;-141.97;40.79;47534.44;5035091;28;20167;-81
2023/05/07 09:22:07;;;;;;;6.27;5.00;;;;;;;-141.97;40.04;47549.84;5034946;28;20171;-80
2023/05/07 09:24:34;;;;;;;6.30;4.20;;;;;;;-141.97;40.53;47522.91;5035726;28;20180;-81
2023/05/07 09:27:02;;;;;;;7.03;4.87;;;;;;;-141.97;41.15;47563.28;5033963;28;20173;-81
2023/05/07 09:29:35;;;;;;;8.50;5.33;;;;;;;-141.97;41.77;47565.22;5035855;28;20640;-81
2023/05/07 09:32:02;;;;;;;9.07;5.60;;;;;;;-141.97;41.45;47511.38;5034445;28;20180;-81
2023/05/07 09:34:29;;;;;;;7.07;5.57;;;;;;;-141.97;41.14;47553.69;5051399;28;20211;-80
2023/05/07 09:36:54;;;;;;;8.53;4.63;;;;;;;-141.97;39.62;47538.28;5054889;28;20166;-81
2023/05/07 09:39:20;;;;;;;7.07;5.30;;;;;;;-141.97;39.69;47661.31;5055352;28;20157;-81
2023/05/07 09:41:46;;;;;;;7.67;4.90;;;;;;;-141.97;39.33;47669.00;5054897;28;20213;-82
2023/05/07 09:44:13;;;;;;;8.47;5.13;;;;;;;-141.97;38.79;47503.69;5056132;28;20641;-83
2023/05/07 09:46:42;;;;;;;6.97;4.67;;;;;;;-141.97;38.58;47590.19;5056046;28;20158;-83
2023/05/07 09:49:15;;;;;;;7.40;5.37;;;;;;;-141.97;39.02;47424.91;5055208;28;20169;-83
2023/05/07 09:51:49;;;;;;;7.47;5.67;;;;;;;-141.97;38.73;47349.94;5056347;28;20158;-81
2023/05/07 09:54:18;;;;;;;7.82;5.63;;;;;;;-141.97;39.15;47649.78;5060577;28;20182;-84
2023/05/07 09:56:48;;;;;;;8.53;6.00;;;;;;;-141.97;39.33;47674.78;5040790;28;20167;-82
2023/05/07 09:59:16;;;;;;;7.87;5.90;;;;;;;-141.97;39.65;47534.44;5064058;28;20162;-82
2023/05/07 10:01:44;;;;;;;6.97;5.63;;;;;;;-141.97;39.86;47415.28;5064809;28;20174;-80
2023/05/07 10:04:13;;;;;;;10.82;6.05;;;;;;;-141.97;39.28;47690.16;5042927;28;20185;-81
2023/05/07 10:06:40;;;;;;;7.50;5.50;;;;;;;-141.97;37.75;47369.16;5038029;28;20636;-82
2023/05/07 10:09:06;;;;;;;6.07;5.07;;;;;;;-141.97;38.46;47534.44;5055730;28;20166;-81
2023/05/07 10:11:34;;;;;;;6.43;5.10;;;;;;;-141.97;38.99;47732.44;5058297;28;20580;-85
2023/05/07 10:14:02;;;;;;;6.23;5.20;;;;;;;-141.97;39.43;47507.53;5063541;28;20181;-84
2023/05/07 10:16:32;;;;;;;7.43;5.67;;;;;;;-141.97;40.46;47499.84;5047506;28;20208;-86
2023/05/07 10:18:58;;;;;;;7.17;6.03;;;;;;;-141.97;40.17;47538.28;5061743;28;20154;-83
2023/05/07 10:21:26;;;;;;;9.40;5.80;;;;;;;-141.97;40.51;47732.44;5056164;28;20161;-84
2023/05/07 10:23:58;;;;;;;8.30;5.67;;;;;;;-141.97;39.42;47478.72;5056456;28;20180;-87
2023/05/07 10:26:25;;;;;;;6.50;5.70;;;;;;;-141.97;38.95;47584.44;5058714;28;20248;-84
2023/05/07 10:28:56;;;;;;;7.03;5.37;;;;;;;-141.97;39.47;47524.84;5057439;28;20185;-83
2023/05/07 10:31:50;;;;;;;7.83;6.07;;;;;;;-141.97;39.56;47484.47;5060280;28;20173;-84
2023/05/07 10:34:20;;;;;;;7.25;5.22;;;;;;;-141.97;39.19;47471.03;5072675;28;20193;-83
2023/05/07 10:36:47;;;;;;;8.65;5.70;;;;;;;-141.97;38.76;47497.94;5055636;28;20181;-84
2023/05/07 10:39:13;;;;;;;5.82;5.20;;;;;;;-141.97;38.63;47492.16;5072491;28;20576;-82
2023/05/07 10:41:39;;;;;;;8.60;5.82;;;;;;;-141.97;38.87;47532.53;5041754;28;20589;-87
2023/05/07 10:44:04;;;;;;;9.52;5.57;;;;;;;-141.97;38.65;47411.44;5057080;28;20163;-84
2023/05/07 10:46:32;;;;;;;8.17;5.47;;;;;;;-141.97;39.33;47538.28;5037506;28;20656;-84
2023/05/07 10:49:05;;;;;;;7.25;5.55;;;;;;;-141.97;38.60;47559.44;5054357;28;20199;-84
2023/05/07 10:51:32;;;;;;;5.43;4.88;;;;;;;-141.97;38.09;47669.00;5054796;28;20181;-83
2023/05/07 10:54:10;;;;;;;7.40;5.10;;;;;;;-141.97;38.08;47507.53;5059999;28;20195;-83
2023/05/07 10:56:37;;;;;;;6.90;5.35;;;;;;;-141.97;37.54;47453.72;5041646;28;20585;-84
2023/05/07 10:59:27;;;;;;;6.03;4.90;;;;;;;-141.97;37.45;47519.06;5056680;28;20165;-83
2023/05/07 11:02:02;;;;;;;6.15;4.70;;;;;;;-141.97;37.41;47651.69;5054572;28;20306;-83